Time;durP1;ratioP1;P1;durP2;ratioP2;P2;SDS_P1;SDS_P2;PMS_P1;PMS_P2;Temp;Humidity;BMP_temperature;BMP_pressure;BME280_temperature;BME280_humidity;BME280_pressure;Samples;Min_cycle;Max_cycle;Signal;HPM_P1;HPM_P2
2022/08/09 00:00:35;;;;;;;9.08;8.23;;;;;;;19.18;74.44;100019.91;1797295;79;22416;-42
2022/08/09 00:03:02;;;;;;;9.73;7.70;;;;;;;19.13;74.64;100025.83;1757212;80;20953;-42
2022/08/09 00:05:30;;;;;;;8.80;7.92;;;;;;;19.15;74.72;100022.10;1757039;81;21108;-42
2022/08/09 00:07:57;;;;;;;10.55;8.53;;;;;;;19.17;74.83;100020.34;1757011;81;21550;-42
2022/08/09 00:10:24;;;;;;;11.05;8.50;;;;;;;19.18;74.78;100015.00;1757103;81;20934;-42
2022/08/09 00:12:52;;;;;;;8.30;7.55;;;;;;;19.18;74.84;100013.63;1757169;81;21024;-42
2022/08/09 00:15:20;;;;;;;9.95;7.33;;;;;;;19.16;75.02;100015.42;1756926;81;21566;-42
2022/08/09 00:17:47;;;;;;;8.40;7.50;;;;;;;19.18;75.17;100022.66;1757306;81;21768;-42
2022/08/09 00:20:14;;;;;;;8.65;7.67;;;;;;;19.21;75.25;100017.75;1757133;81;21515;-42
2022/08/09 00:22:41;;;;;;;8.05;7.00;;;;;;;19.24;75.20;100027.94;1756968;81;21036;-42
2022/08/09 00:25:09;;;;;;;8.33;7.40;;;;;;;19.28;75.14;100025.94;1757161;81;21040;-42
2022/08/09 00:27:35;;;;;;;9.23;7.33;;;;;;;19.29;75.14;100013.77;1757250;81;21013;-42
2022/08/09 00:30:04;;;;;;;9.23;7.95;;;;;;;19.33;75.19;100020.02;1757380;81;21132;-42
2022/08/09 00:32:32;;;;;;;11.70;7.15;;;;;;;19.36;75.14;100016.48;1757136;81;21001;-42
2022/08/09 00:34:59;;;;;;;9.33;7.08;;;;;;;19.38;75.09;100011.35;1757093;81;20965;-42
2022/08/09 00:37:26;;;;;;;8.53;7.10;;;;;;;19.39;75.14;100005.27;1756990;81;21358;-42
2022/08/09 00:39:53;;;;;;;8.13;7.10;;;;;;;19.39;75.33;100008.80;1757024;81;21021;-42
2022/08/09 00:42:21;;;;;;;8.73;7.42;;;;;;;19.39;75.47;100007.42;1757032;81;21129;-42
2022/08/09 00:44:49;;;;;;;8.95;7.33;;;;;;;19.40;75.60;100007.62;1757097;81;20961;-42
2022/08/09 00:47:15;;;;;;;7.83;7.08;;;;;;;19.39;75.69;100000.55;1757200;81;21523;-42
2022/08/09 00:49:43;;;;;;;8.60;6.75;;;;;;;19.38;75.78;100010.56;1757189;81;21512;-42
2022/08/09 00:52:10;;;;;;;8.83;7.30;;;;;;;19.35;75.93;100005.88;1757035;81;21012;-42
2022/08/09 00:54:37;;;;;;;7.50;6.80;;;;;;;19.30;76.04;100016.72;1757063;81;21206;-42
2022/08/09 00:57:05;;;;;;;10.50;7.50;;;;;;;19.28;76.23;100013.58;1757177;81;21004;-42
2022/08/09 00:59:32;;;;;;;7.05;6.37;;;;;;;19.25;76.41;100010.27;1757305;81;21504;-42
2022/08/09 01:02:00;;;;;;;8.73;6.92;;;;;;;19.21;76.60;100010.88;1757670;81;20937;-42
2022/08/09 01:04:55;;;;;;;9.00;8.05;;;;;;;19.19;76.78;100009.70;1757609;81;21065;-42
2022/08/09 01:07:34;;;;;;;7.60;6.60;;;;;;;19.13;76.98;100002.47;1754605;81;21243;-42
2022/08/09 01:10:12;;;;;;;8.43;7.50;;;;;;;19.07;77.35;100003.47;1744901;81;21050;-42
2022/08/09 01:12:48;;;;;;;8.05;7.25;;;;;;;19.03;77.56;100006.05;1757707;81;20988;-42
2022/08/09 01:15:24;;;;;;;10.15;6.60;;;;;;;19.00;77.74;100009.02;1756679;81;21028;-42
2022/08/09 01:17:59;;;;;;;9.25;6.97;;;;;;;18.98;77.89;100005.88;1757082;81;21004;-42
2022/08/09 01:21:06;;;;;;;8.40;7.50;;;;;;;18.99;78.00;100005.29;1756834;81;21242;-42
2022/08/09 01:23:45;;;;;;;7.62;6.83;;;;;;;19.01;77.95;100007.06;1756669;81;20973;-42
2022/08/09 01:26:54;;;;;;;7.30;6.53;;;;;;;18.97;78.00;100015.33;1746005;81;21024;-42
2022/08/09 01:29:36;;;;;;;8.45;6.60;;;;;;;18.95;78.03;100022.39;1757021;81;20933;-42
2022/08/09 01:32:03;;;;;;;9.50;7.00;;;;;;;18.91;78.14;100011.42;1746924;81;21021;-42
2022/08/09 01:34:31;;;;;;;7.47;6.78;;;;;;;18.90;78.27;100017.30;1757146;81;21095;-42
2022/08/09 01:36:59;;;;;;;8.43;6.85;;;;;;;18.89;78.31;100019.86;1756603;81;20984;-42
2022/08/09 01:39:26;;;;;;;8.20;6.03;;;;;;;18.89;78.34;100020.64;1756763;81;20961;-42
2022/08/09 01:41:53;;;;;;;9.25;6.67;;;;;;;18.91;78.42;100017.50;1756692;81;20967;-42
2022/08/09 01:44:20;;;;;;;7.37;6.60;;;;;;;18.92;78.37;100018.48;1756885;81;21009;-42
2022/08/09 01:46:47;;;;;;;8.50;7.33;;;;;;;18.94;78.29;100015.33;1756797;81;21292;-42
2022/08/09 01:49:17;;;;;;;8.18;6.45;;;;;;;18.95;78.29;100010.81;1756819;81;21048;-42
2022/08/09 01:51:52;;;;;;;7.25;5.95;;;;;;;18.99;78.27;100007.45;1756724;81;21566;-42
2022/08/09 01:54:20;;;;;;;6.15;5.55;;;;;;;19.03;78.14;100004.67;1756711;81;21254;-42
2022/08/09 01:56:48;;;;;;;9.33;6.00;;;;;;;19.08;78.03;100005.63;1756702;81;21025;-42
2022/08/09 01:59:18;;;;;;;6.17;4.92;;;;;;;19.12;77.90;100003.67;1756760;81;21649;-42
2022/08/09 02:01:46;;;;;;;6.17;5.28;;;;;;;19.18;77.77;100010.88;1756766;81;20985;-42
2022/08/09 02:04:13;;;;;;;5.92;5.10;;;;;;;19.24;77.58;100017.53;1757053;81;20965;-42
2022/08/09 02:09:28;;;;;;;7.47;5.10;;;;;;;19.29;77.00;100011.02;1756914;81;21053;-42
2022/08/09 02:11:55;;;;;;;8.63;5.37;;;;;;;19.31;76.85;100007.29;1756965;81;21168;-42
2022/08/09 02:14:22;;;;;;;5.03;4.53;;;;;;;19.34;76.47;100016.09;1756679;81;20933;-42
2022/08/09 02:16:49;;;;;;;6.65;5.30;;;;;;;19.32;76.23;100017.08;1751436;81;21009;-42
2022/08/09 02:19:16;;;;;;;5.30;4.83;;;;;;;19.28;76.14;100012.79;1756695;81;21036;-42
2022/08/09 02:21:46;;;;;;;5.00;4.60;;;;;;;19.28;76.16;100010.04;1765140;81;20993;-42
2022/08/09 02:24:17;;;;;;;6.40;5.08;;;;;;;19.26;76.04;100009.09;1756944;81;21238;-42
2022/08/09 02:26:44;;;;;;;5.65;5.08;;;;;;;19.25;76.09;100008.10;1757018;81;21040;-42
2022/08/09 02:29:25;;;;;;;5.30;4.80;;;;;;;19.23;76.18;100008.50;1756922;81;20984;-42
2022/08/09 02:31:57;;;;;;;5.20;4.70;;;;;;;19.26;76.13;100015.95;1756864;81;21291;-42
2022/08/09 02:34:29;;;;;;;7.08;4.22;;;;;;;19.27;76.09;100017.50;1757025;81;21104;-42
2022/08/09 02:36:58;;;;;;;4.80;4.35;;;;;;;19.27;76.02;100012.00;1756875;81;21176;-42
2022/08/09 02:39:31;;;;;;;5.62;4.42;;;;;;;19.27;75.85;100019.47;1756981;81;21037;-42
2022/08/09 02:42:06;;;;;;;4.87;4.47;;;;;;;19.24;75.74;100021.06;1757078;81;21515;-42
2022/08/09 02:44:36;;;;;;;5.30;4.62;;;;;;;19.22;75.77;100020.67;1756175;81;21032;-42
2022/08/09 02:47:07;;;;;;;6.53;4.53;;;;;;;19.22;75.84;100024.03;1756817;81;21041;-42
2022/08/09 02:49:39;;;;;;;4.67;4.22;;;;;;;19.23;75.73;100023.62;1757013;81;21375;-42
2022/08/09 02:52:09;;;;;;;5.70;4.40;;;;;;;19.24;75.75;100021.06;1756861;81;20953;-42
2022/08/09 02:54:36;;;;;;;5.90;4.03;;;;;;;19.26;75.65;100025.58;1756975;81;20985;-42
2022/08/09 02:57:03;;;;;;;6.50;4.33;;;;;;;19.27;75.58;100025.75;1694245;83;21115;-42
2022/08/09 02:59:30;;;;;;;4.45;3.98;;;;;;;19.28;75.48;100030.06;1718873;83;21677;-42
2022/08/09 03:01:58;;;;;;;4.90;4.22;;;;;;;19.28;75.42;100034.19;1707709;84;21590;-42
2022/08/09 03:04:25;;;;;;;4.62;4.00;;;;;;;19.30;75.40;100031.84;1707593;84;20965;-42
2022/08/09 03:06:52;;;;;;;5.12;4.35;;;;;;;19.32;75.32;100028.08;1732835;82;20973;-42
2022/08/09 03:09:19;;;;;;;5.22;4.03;;;;;;;19.33;75.31;100021.40;1743328;82;21604;-42
2022/08/09 03:11:48;;;;;;;4.50;4.10;;;;;;;19.38;75.20;100015.48;1743524;81;21058;-42
2022/08/09 03:14:15;;;;;;;6.50;4.30;;;;;;;19.42;74.90;100019.56;1743676;81;21115;-42
2022/08/09 03:16:42;;;;;;;7.15;4.72;;;;;;;19.43;74.75;100015.05;1743658;82;21006;-42
2022/08/09 03:19:09;;;;;;;5.92;4.17;;;;;;;19.44;74.80;100019.41;1743287;82;21124;-42
2022/08/09 03:21:36;;;;;;;5.12;4.50;;;;;;;19.46;74.68;100028.02;1743423;81;20930;-42
2022/08/09 03:24:04;;;;;;;5.75;4.15;;;;;;;19.47;74.63;100030.96;1743438;81;21069;-42
2022/08/09 03:26:31;;;;;;;7.17;4.37;;;;;;;19.48;74.57;100035.88;1737431;82;21190;-42
2022/08/09 03:28:58;;;;;;;4.97;3.98;;;;;;;19.49;74.55;100038.82;1743422;82;21005;-42
2022/08/09 03:31:26;;;;;;;5.80;4.22;;;;;;;19.49;74.50;100038.82;1743338;81;21057;-42
2022/08/09 03:33:54;;;;;;;6.55;4.30;;;;;;;19.49;74.20;100040.98;1757816;81;21464;-42
2022/08/09 03:36:22;;;;;;;5.40;4.33;;;;;;;19.45;74.20;100042.97;1743869;82;21078;-42
2022/08/09 03:38:49;;;;;;;6.42;4.10;;;;;;;19.44;74.23;100044.16;1743503;82;21920;-42
2022/08/09 03:41:16;;;;;;;5.65;4.20;;;;;;;19.41;74.14;100041.41;1757978;81;21488;-42
2022/08/09 03:43:45;;;;;;;5.28;4.40;;;;;;;19.36;74.17;100039.86;1743545;82;20926;-42
2022/08/09 03:46:13;;;;;;;4.23;3.90;;;;;;;19.33;74.27;100036.52;1743868;81;20989;-42
2022/08/09 03:48:40;;;;;;;5.03;4.53;;;;;;;19.33;74.43;100042.02;1743633;82;21098;-42
2022/08/09 03:51:09;;;;;;;5.60;4.22;;;;;;;19.31;74.53;100043.63;1743427;81;23117;-42
2022/08/09 03:53:37;;;;;;;5.17;3.80;;;;;;;19.32;74.61;100040.45;1743590;82;20934;-42
2022/08/09 03:56:05;;;;;;;4.20;3.80;;;;;;;19.38;74.68;100036.09;1743363;82;21536;-42
2022/08/09 03:58:33;;;;;;;4.78;4.28;;;;;;;19.44;74.68;100037.28;1743523;81;20942;-42
2022/08/09 04:01:00;;;;;;;4.65;3.72;;;;;;;19.52;74.52;100029.75;1738524;81;21096;-42
2022/08/09 04:03:27;;;;;;;5.50;3.58;;;;;;;19.55;74.44;100022.09;1743568;82;21295;-42
2022/08/09 04:05:54;;;;;;;5.62;3.65;;;;;;;19.60;74.30;100018.91;1743117;82;21492;-42
2022/08/09 04:08:21;;;;;;;5.55;3.15;;;;;;;19.67;74.17;100022.97;1743412;81;20962;-42
2022/08/09 04:10:48;;;;;;;4.85;3.10;;;;;;;19.70;73.97;100021.39;1743349;81;21041;-42
2022/08/09 04:13:17;;;;;;;5.70;3.10;;;;;;;19.74;73.84;100027.64;1757595;81;21080;-42
2022/08/09 04:15:45;;;;;;;4.25;3.20;;;;;;;19.77;73.74;100029.58;1734954;82;21312;-42
2022/08/09 04:18:12;;;;;;;4.80;3.20;;;;;;;19.79;73.58;100025.84;1735002;82;21076;-42
2022/08/09 04:20:39;;;;;;;4.72;3.27;;;;;;;19.83;73.63;100023.83;1734893;82;20981;-42
2022/08/09 04:23:07;;;;;;;5.42;3.08;;;;;;;19.86;73.58;100033.43;1734944;82;20902;-42
2022/08/09 04:25:35;;;;;;;4.58;3.20;;;;;;;19.90;73.55;100032.02;1734875;82;21002;-42
2022/08/09 04:28:03;;;;;;;9.20;3.35;;;;;;;19.95;73.58;100026.08;1735025;82;21923;-42
2022/08/09 04:30:30;;;;;;;4.37;2.90;;;;;;;19.98;73.60;100025.28;1734797;82;21054;-42
2022/08/09 04:32:58;;;;;;;5.05;3.12;;;;;;;20.04;73.74;100020.13;1734958;82;20973;-42
2022/08/09 04:35:26;;;;;;;5.37;2.87;;;;;;;20.10;73.38;100024.77;1734915;82;21543;-42
2022/08/09 04:37:53;;;;;;;5.92;3.37;;;;;;;20.16;73.25;100025.90;1734886;82;20903;-42
2022/08/09 04:40:20;;;;;;;5.05;3.10;;;;;;;20.23;73.24;100024.47;1734905;82;21135;-42
2022/08/09 04:42:47;;;;;;;3.08;2.77;;;;;;;20.30;72.91;100021.66;1734787;82;20938;-42
2022/08/09 04:45:15;;;;;;;4.83;2.87;;;;;;;20.37;72.41;100018.84;1735209;82;20990;-42
2022/08/09 04:47:42;;;;;;;3.50;2.70;;;;;;;20.43;72.26;100025.28;1735451;82;21504;-42
2022/08/09 04:50:09;;;;;;;4.37;2.60;;;;;;;20.48;72.27;100020.70;1735242;82;21061;-42
2022/08/09 04:52:36;;;;;;;2.83;2.55;;;;;;;20.53;72.11;100022.98;1735238;82;21329;-42
2022/08/09 04:55:05;;;;;;;6.33;2.67;;;;;;;20.59;71.93;100030.98;1735325;82;20972;-42
2022/08/09 04:57:33;;;;;;;7.78;2.70;;;;;;;20.64;71.77;100027.78;1735425;82;21005;-42
2022/08/09 05:00:00;;;;;;;2.77;2.47;;;;;;;20.66;71.60;100029.55;1735833;81;21595;-43
2022/08/09 05:02:27;;;;;;;4.72;2.60;;;;;;;20.69;71.18;100035.60;1749023;82;21009;-42
2022/08/09 05:04:54;;;;;;;2.70;2.50;;;;;;;20.72;71.19;100037.55;1749109;82;21241;-42
2022/08/09 05:07:22;;;;;;;3.22;2.40;;;;;;;20.75;70.99;100038.09;1749013;82;20965;-42
2022/08/09 05:09:49;;;;;;;3.55;2.80;;;;;;;20.76;70.64;100041.83;1749020;82;20961;-42
2022/08/09 05:12:17;;;;;;;3.80;2.50;;;;;;;20.78;70.81;100044.94;1749018;82;21072;-42
2022/08/09 05:14:45;;;;;;;3.75;2.20;;;;;;;20.78;70.87;100038.64;1749355;82;21005;-42
2022/08/09 05:17:12;;;;;;;3.05;2.40;;;;;;;20.80;70.57;100047.30;1749157;82;21078;-42
2022/08/09 05:19:39;;;;;;;3.00;2.33;;;;;;;20.83;70.55;100050.00;1749008;82;21008;-42
2022/08/09 05:22:06;;;;;;;4.25;2.40;;;;;;;20.84;70.60;100056.30;1748941;82;20933;-42
2022/08/09 05:24:33;;;;;;;2.55;2.22;;;;;;;20.87;70.71;100058.81;1748817;82;21080;-42
2022/08/09 05:27:01;;;;;;;4.17;2.30;;;;;;;20.93;70.49;100056.58;1743853;82;21029;-42
2022/08/09 05:29:28;;;;;;;3.02;2.10;;;;;;;21.01;70.32;100061.42;1749138;82;21575;-42
2022/08/09 05:31:58;;;;;;;2.62;2.30;;;;;;;21.09;70.01;100063.67;1748820;82;21540;-42
2022/08/09 05:34:30;;;;;;;2.73;2.00;;;;;;;21.15;69.39;100059.89;1721904;82;21554;-42
2022/08/09 05:37:01;;;;;;;2.77;2.20;;;;;;;21.21;69.03;100063.14;1748797;82;21004;-42
2022/08/09 05:39:28;;;;;;;5.12;2.08;;;;;;;21.28;69.04;100058.13;1748800;82;20994;-42
2022/08/09 05:41:56;;;;;;;3.20;2.12;;;;;;;21.36;68.95;100054.67;1749270;82;21220;-42
2022/08/09 05:44:24;;;;;;;4.58;2.30;;;;;;;21.42;68.49;100064.05;1749254;82;21572;-42
2022/08/09 05:46:51;;;;;;;5.05;2.10;;;;;;;21.47;68.53;100069.10;1749244;82;21650;-42
2022/08/09 05:49:18;;;;;;;4.95;2.20;;;;;;;21.53;68.06;100068.83;1749300;82;21040;-42
2022/08/09 05:51:46;;;;;;;2.27;2.05;;;;;;;21.58;67.82;100065.60;1749017;82;21025;-42
2022/08/09 05:54:13;;;;;;;3.98;2.27;;;;;;;21.61;67.83;100071.06;1749052;82;22050;-42
2022/08/09 05:56:40;;;;;;;2.62;2.25;;;;;;;21.64;67.48;100071.59;1748784;82;20929;-42
2022/08/09 05:59:07;;;;;;;4.90;2.37;;;;;;;21.70;67.15;100074.67;1749088;82;20961;-42
2022/08/09 06:01:35;;;;;;;2.12;1.90;;;;;;;21.77;66.68;100072.41;1740755;82;21245;-42
2022/08/09 06:04:03;;;;;;;4.70;2.12;;;;;;;21.74;66.44;100053.91;1735031;82;21029;-42
2022/08/09 06:06:30;;;;;;;2.83;1.98;;;;;;;21.86;66.04;100062.41;1735367;82;21050;-42
2022/08/09 06:08:58;;;;;;;2.08;1.92;;;;;;;21.89;66.19;100061.55;1734918;82;20934;-42
2022/08/09 06:11:25;;;;;;;2.70;1.80;;;;;;;21.95;65.97;100061.30;1735226;82;21477;-42
2022/08/09 06:13:52;;;;;;;2.95;1.70;;;;;;;22.02;65.97;100068.09;1735030;82;21020;-42
2022/08/09 06:16:19;;;;;;;3.17;1.85;;;;;;;22.11;64.91;100062.03;1735032;82;21018;-42
2022/08/09 06:18:46;;;;;;;4.15;2.25;;;;;;;22.19;64.56;100064.05;1735007;82;21237;-42
2022/08/09 06:21:13;;;;;;;4.17;1.77;;;;;;;22.26;64.45;100063.35;1734967;82;20918;-42
2022/08/09 06:23:40;;;;;;;4.58;1.80;;;;;;;22.34;63.56;100059.84;1734828;82;20982;-42
2022/08/09 06:26:07;;;;;;;2.47;1.60;;;;;;;22.40;63.32;100055.41;1735075;82;21006;-42
2022/08/09 06:28:34;;;;;;;2.00;1.45;;;;;;;22.48;63.50;100061.75;1735200;82;21045;-42
2022/08/09 06:31:01;;;;;;;3.22;1.60;;;;;;;22.59;63.22;100065.70;1735335;82;21250;-43
2022/08/09 06:33:28;;;;;;;1.77;1.40;;;;;;;22.71;62.44;100075.37;1735047;82;21038;-42
2022/08/09 06:35:56;;;;;;;1.60;1.27;;;;;;;22.79;61.47;100073.45;1735179;82;21001;-42
2022/08/09 06:38:23;;;;;;;7.05;1.50;;;;;;;22.87;61.17;100074.86;1735185;82;21049;-42
2022/08/09 06:40:50;;;;;;;2.62;1.40;;;;;;;22.94;60.20;100076.71;1734851;82;21476;-42
2022/08/09 06:43:17;;;;;;;3.52;1.62;;;;;;;23.03;60.19;100076.14;1734907;82;23199;-42
2022/08/09 06:45:44;;;;;;;2.60;1.65;;;;;;;23.12;59.85;100070.80;1734862;82;20926;-42
2022/08/09 06:48:12;;;;;;;3.30;1.65;;;;;;;23.21;59.69;100071.01;1735105;82;21072;-43
2022/08/09 06:50:40;;;;;;;2.27;1.50;;;;;;;23.32;59.28;100077.09;1734867;82;21093;-42
2022/08/09 06:53:08;;;;;;;1.62;1.27;;;;;;;23.39;59.16;100084.63;1735111;82;21053;-42
2022/08/09 06:55:35;;;;;;;1.95;1.35;;;;;;;23.45;57.66;100079.41;1735050;82;21246;-43
2022/08/09 06:58:02;;;;;;;1.27;1.17;;;;;;;23.47;57.14;100079.77;1735039;82;20926;-42
2022/08/09 07:00:29;;;;;;;2.42;1.65;;;;;;;23.45;57.00;100082.17;1734813;82;21029;-43
2022/08/09 07:02:56;;;;;;;4.65;1.35;;;;;;;23.43;56.83;100080.39;1735218;82;21092;-42
2022/08/09 07:05:24;;;;;;;1.98;1.60;;;;;;;23.43;56.71;100079.01;1734811;82;21010;-43
2022/08/09 07:07:53;;;;;;;2.33;1.67;;;;;;;23.45;56.73;100089.09;1734889;82;21233;-43
2022/08/09 07:10:21;;;;;;;4.25;1.50;;;;;;;23.38;56.85;100083.70;1734899;82;20887;-42
2022/08/09 07:12:49;;;;;;;7.90;1.82;;;;;;;23.28;56.46;100091.62;1735435;82;21056;-42
2022/08/09 07:15:16;;;;;;;3.30;1.55;;;;;;;23.21;56.67;100087.00;1735200;82;20938;-42
2022/08/09 07:17:44;;;;;;;3.45;1.62;;;;;;;23.18;55.90;100084.32;1735155;82;21014;-43
2022/08/09 07:20:11;;;;;;;2.12;1.40;;;;;;;23.12;55.54;100086.02;1735198;82;21142;-42
2022/08/09 07:22:39;;;;;;;4.55;1.37;;;;;;;23.05;55.71;100082.00;1735128;82;20993;-42
2022/08/09 07:25:07;;;;;;;1.77;1.50;;;;;;;23.04;55.94;100085.40;1735032;82;21081;-42
2022/08/09 07:27:35;;;;;;;2.25;1.50;;;;;;;23.07;56.64;100088.69;1735206;82;21018;-42
2022/08/09 07:30:03;;;;;;;3.35;1.20;;;;;;;23.10;56.22;100083.67;1735077;82;21002;-42
2022/08/09 07:32:30;;;;;;;1.85;1.40;;;;;;;23.12;55.72;100084.64;1734907;82;21134;-42
2022/08/09 07:34:57;;;;;;;2.02;1.37;;;;;;;23.09;54.86;100086.25;1734988;82;20966;-42
2022/08/09 07:37:24;;;;;;;1.98;1.30;;;;;;;23.04;53.93;100086.00;1734997;82;21057;-42
2022/08/09 07:39:51;;;;;;;4.05;1.67;;;;;;;22.95;54.71;100091.48;1734858;82;21092;-43
2022/08/09 07:42:22;;;;;;;2.22;1.40;;;;;;;22.89;54.63;100089.05;1735201;82;21511;-42
2022/08/09 07:44:48;;;;;;;2.50;1.20;;;;;;;22.87;54.91;100090.06;1734961;82;21220;-42
2022/08/09 07:47:16;;;;;;;2.10;1.50;;;;;;;22.89;55.10;100081.36;1734926;82;20953;-42
2022/08/09 07:49:43;;;;;;;1.80;1.20;;;;;;;22.93;55.02;100086.99;1734967;82;21289;-42
2022/08/09 07:52:10;;;;;;;2.15;1.30;;;;;;;22.98;54.75;100091.24;1734991;82;20990;-43
2022/08/09 07:54:37;;;;;;;3.75;1.42;;;;;;;23.05;55.36;100091.69;1734846;82;21009;-43
2022/08/09 07:57:04;;;;;;;3.62;1.40;;;;;;;23.10;54.87;100089.80;1735088;82;21188;-42
2022/08/09 07:59:31;;;;;;;4.03;1.10;;;;;;;23.14;54.61;100097.45;1735171;82;21013;-42
2022/08/09 08:01:58;;;;;;;2.47;1.30;;;;;;;23.15;54.08;100104.52;1735625;81;20994;-43
2022/08/09 08:04:26;;;;;;;3.00;1.20;;;;;;;23.18;53.31;100098.16;1734967;82;21610;-43
2022/08/09 08:06:53;;;;;;;2.67;1.10;;;;;;;23.16;53.52;100099.95;1735127;82;21500;-43
2022/08/09 08:09:20;;;;;;;1.30;1.10;;;;;;;23.15;53.67;100110.05;1735026;82;23160;-42
2022/08/09 08:11:47;;;;;;;4.00;1.00;;;;;;;23.17;53.46;100111.80;1734959;82;21025;-42
2022/08/09 08:14:15;;;;;;;1.62;0.95;;;;;;;23.20;51.62;100115.09;1734905;82;21489;-42
2022/08/09 08:16:42;;;;;;;1.07;0.90;;;;;;;23.24;51.05;100112.42;1734974;82;21073;-43
2022/08/09 08:19:09;;;;;;;5.17;1.15;;;;;;;23.28;50.74;100113.16;1735085;82;21058;-43
2022/08/09 08:21:36;;;;;;;1.25;0.95;;;;;;;23.33;50.36;100114.64;1734973;82;21257;-43
2022/08/09 08:24:04;;;;;;;7.75;1.15;;;;;;;23.39;50.11;100110.13;1734896;82;21069;-42
2022/08/09 08:26:32;;;;;;;3.22;1.20;;;;;;;23.45;50.04;100105.70;1735036;82;20954;-42
2022/08/09 08:28:59;;;;;;;1.10;0.85;;;;;;;23.50;49.44;100105.19;1735062;82;21021;-43
2022/08/09 08:31:26;;;;;;;2.47;1.00;;;;;;;23.54;49.44;100108.66;1730620;82;21011;-43
2022/08/09 08:33:53;;;;;;;1.40;1.00;;;;;;;23.58;49.33;100111.34;1735208;82;21155;-43
2022/08/09 08:36:21;;;;;;;2.58;1.17;;;;;;;23.63;49.41;100110.23;1735090;82;20922;-42
2022/08/09 08:38:48;;;;;;;1.55;1.40;;;;;;;23.67;50.15;100109.53;1735103;82;21002;-43
2022/08/09 08:41:15;;;;;;;2.12;1.37;;;;;;;23.70;49.92;100105.92;1734919;82;21062;-43
2022/08/09 08:43:45;;;;;;;2.45;1.20;;;;;;;23.69;50.42;100098.83;1735175;82;21547;-43
2022/08/09 08:46:13;;;;;;;1.67;1.20;;;;;;;23.72;50.53;100093.80;1714452;82;21263;-43
2022/08/09 08:48:41;;;;;;;1.37;1.00;;;;;;;23.76;49.93;100093.14;1735216;82;21005;-42
2022/08/09 08:51:08;;;;;;;3.72;1.40;;;;;;;23.80;49.71;100097.98;1735090;82;20981;-43
2022/08/09 08:53:35;;;;;;;2.10;1.27;;;;;;;23.81;50.30;100098.16;1735037;82;21008;-43
2022/08/09 08:56:05;;;;;;;1.77;1.10;;;;;;;23.83;49.24;100098.49;1676963;82;21019;-43
2022/08/09 08:58:32;;;;;;;;;;;;;;;23.85;49.07;100093.14;1738098;82;21080;-42
2022/08/09 09:01:01;;;;;;;2.37;1.20;;;;;;;23.82;49.44;100098.31;1738773;81;20207;-42
2022/08/09 09:03:33;;;;;;;2.33;1.12;;;;;;;23.75;50.33;100093.56;1742925;81;20973;-42
2022/08/09 09:06:02;;;;;;;1.60;1.12;;;;;;;23.80;49.90;100095.81;1749072;82;21569;-42
2022/08/09 09:08:36;;;;;;;2.10;1.10;;;;;;;23.85;49.34;100096.69;1749407;82;21115;-43
2022/08/09 09:11:04;;;;;;;3.85;1.40;;;;;;;23.92;48.51;100093.73;1749315;82;21074;-42
2022/08/09 09:13:39;;;;;;;1.95;1.12;;;;;;;23.95;48.32;100092.11;1749252;82;21255;-43
2022/08/09 09:16:08;;;;;;;4.45;1.40;;;;;;;23.96;45.89;100081.98;1749258;82;20994;-43
2022/08/09 09:18:36;;;;;;;3.00;1.52;;;;;;;23.93;45.10;100082.05;1749428;82;21042;-42
2022/08/09 09:21:07;;;;;;;8.03;1.70;;;;;;;23.91;44.81;100078.34;1748867;82;21033;-43
2022/08/09 09:23:44;;;;;;;3.30;1.57;;;;;;;23.88;43.79;100088.11;1749438;82;21102;-43
2022/08/09 09:26:12;;;;;;;3.15;1.75;;;;;;;23.85;44.18;100079.29;1748965;82;20930;-43
2022/08/09 09:28:45;;;;;;;3.72;1.60;;;;;;;23.81;43.83;100087.09;1749161;82;20989;-42
2022/08/09 09:31:16;;;;;;;2.35;1.87;;;;;;;23.79;44.37;100091.48;1720624;82;21556;-43
2022/08/09 09:33:43;;;;;;;5.95;1.98;;;;;;;23.77;44.75;100086.36;1749103;82;20981;-42
2022/08/09 09:36:12;;;;;;;4.87;1.80;;;;;;;23.81;45.29;100094.61;1748823;82;23134;-43
2022/08/09 09:38:47;;;;;;;3.05;1.32;;;;;;;23.87;45.68;100085.19;1749031;82;21020;-42
2022/08/09 09:41:27;;;;;;;3.90;1.12;;;;;;;23.90;43.99;100084.31;1748773;82;21071;-43
2022/08/09 09:43:56;;;;;;;2.47;0.88;;;;;;;23.92;43.52;100088.19;1748891;82;20978;-43
2022/08/09 09:46:31;;;;;;;2.40;1.00;;;;;;;23.89;43.13;100085.52;1749244;82;21029;-43
2022/08/09 09:49:01;;;;;;;2.42;0.80;;;;;;;23.86;43.81;100083.02;1749282;82;21100;-42
2022/08/09 09:51:28;;;;;;;4.35;1.02;;;;;;;23.87;43.49;100074.11;1748822;82;21483;-42
2022/08/09 09:54:07;;;;;;;2.37;1.07;;;;;;;23.94;43.90;100087.77;1743880;82;21013;-43
2022/08/09 09:56:39;;;;;;;1.57;1.00;;;;;;;23.97;43.10;100082.14;1749338;82;21586;-43
2022/08/09 09:59:08;;;;;;;2.05;1.00;;;;;;;23.98;42.69;100076.78;1749363;82;21072;-42
2022/08/09 10:01:35;;;;;;;2.25;0.93;;;;;;;24.04;43.39;100079.20;1749108;82;22114;-43
2022/08/09 10:04:05;;;;;;;3.10;0.98;;;;;;;24.09;43.87;100076.52;1740336;82;20942;-43
2022/08/09 10:06:40;;;;;;;1.90;1.10;;;;;;;24.14;42.87;100074.02;1735361;82;20974;-43
2022/08/09 10:09:07;;;;;;;2.72;1.35;;;;;;;24.20;42.55;100078.45;1735135;82;21093;-42
2022/08/09 10:11:35;;;;;;;3.15;1.00;;;;;;;24.21;42.96;100077.22;1734984;82;21037;-43
2022/08/09 10:14:03;;;;;;;1.85;0.90;;;;;;;24.26;42.72;100076.70;1734939;82;23126;-43
2022/08/09 10:16:35;;;;;;;1.85;1.00;;;;;;;24.35;42.69;100075.47;1734890;82;21547;-43
2022/08/09 10:19:07;;;;;;;3.27;1.00;;;;;;;24.42;42.04;100068.37;1735395;82;20950;-43
2022/08/09 10:21:35;;;;;;;1.87;1.02;;;;;;;24.47;42.04;100070.61;1734853;82;21057;-43
2022/08/09 10:24:03;;;;;;;1.55;0.95;;;;;;;24.56;42.53;100068.59;1735139;82;21041;-42
2022/08/09 10:26:31;;;;;;;2.37;0.82;;;;;;;24.63;41.91;100065.03;1739256;82;21205;-43
2022/08/09 10:29:00;;;;;;;4.17;0.98;;;;;;;24.71;41.91;100066.99;1743451;82;20922;-42
2022/08/09 10:31:27;;;;;;;2.00;0.90;;;;;;;24.81;42.00;100069.30;1743756;81;20985;-42
2022/08/09 10:33:54;;;;;;;2.22;0.90;;;;;;;24.91;41.66;100069.64;1743341;82;21579;-43
2022/08/09 10:36:20;;;;;;;2.62;1.17;;;;;;;24.96;41.97;100062.95;1743467;82;20983;-43
2022/08/09 10:38:48;;;;;;;1.30;0.85;;;;;;;25.06;41.99;100065.25;1743259;81;21136;-43
2022/08/09 10:41:15;;;;;;;1.37;0.80;;;;;;;25.15;41.38;100057.05;1743518;82;21042;-43
2022/08/09 10:43:45;;;;;;;3.55;1.20;;;;;;;25.25;40.75;100053.18;1743569;82;21074;-43
2022/08/09 10:46:50;;;;;;;1.72;1.10;;;;;;;25.34;40.80;100051.13;1743531;82;21020;-43
2022/08/09 10:49:26;;;;;;;1.25;0.80;;;;;;;25.45;41.81;100050.98;1743693;82;21038;-43
2022/08/09 10:52:04;;;;;;;0.80;0.80;;;;;;;25.62;41.01;100043.33;1743378;81;22215;-42
2022/08/09 10:54:31;;;;;;;1.55;1.17;;;;;;;25.78;40.64;100051.55;1743402;81;20978;-43
2022/08/09 10:57:12;;;;;;;3.60;1.05;;;;;;;25.95;40.72;100045.23;1743512;81;21070;-43
2022/08/09 10:59:41;;;;;;;3.25;1.05;;;;;;;26.06;40.05;100044.27;1743578;82;21037;-43
2022/08/09 11:02:17;;;;;;;1.25;0.85;;;;;;;26.10;40.24;100052.48;1743499;81;21013;-43
2022/08/09 11:04:47;;;;;;;1.32;0.90;;;;;;;26.14;40.03;100045.58;1743388;82;21086;-43
2022/08/09 11:07:23;;;;;;;1.05;0.70;;;;;;;26.21;39.63;100044.56;1715069;82;20970;-43
2022/08/09 11:09:50;;;;;;;2.80;1.05;;;;;;;26.25;39.56;100049.41;1743405;81;21065;-43
2022/08/09 11:12:24;;;;;;;2.12;0.93;;;;;;;26.22;39.47;100049.72;1743182;81;21581;-42
2022/08/09 11:15:20;;;;;;;1.27;0.80;;;;;;;26.14;39.16;100052.52;1743365;82;21077;-43
2022/08/09 11:17:48;;;;;;;1.27;0.70;;;;;;;26.03;39.49;100057.68;1743253;82;21255;-43
2022/08/09 11:20:18;;;;;;;2.45;0.72;;;;;;;25.88;40.54;100059.37;1742581;82;20954;-43
2022/08/09 11:22:51;;;;;;;2.85;1.12;;;;;;;25.79;40.23;100053.72;1743509;82;20974;-43
2022/08/09 11:25:21;;;;;;;1.98;0.95;;;;;;;25.68;40.67;100050.50;1743404;81;21078;-43
2022/08/09 11:27:53;;;;;;;2.25;0.90;;;;;;;25.57;41.22;100050.83;1743475;82;20994;-43
2022/08/09 11:30:31;;;;;;;2.67;1.00;;;;;;;25.43;41.66;100058.96;1743374;81;21234;-43
2022/08/09 11:33:20;;;;;;;3.20;1.10;;;;;;;25.32;42.00;100052.95;1743385;81;20957;-43
2022/08/09 11:35:55;;;;;;;;;;;;;;;25.27;41.77;100053.50;1746050;82;21013;-43
2022/08/09 11:38:33;;;;;;;4.05;1.00;;;;;;;25.06;41.20;100052.77;1743327;82;20165;-43